createdAt,value
2022-07-30T00:00:24.901Z,27.90
2022-07-30T00:02:53.204Z,27.80
2022-07-30T00:05:20.842Z,27.80
2022-07-30T00:07:48.217Z,27.80
2022-07-30T00:10:15.345Z,27.80
2022-07-30T00:12:42.283Z,27.80
2022-07-30T00:15:09.761Z,27.80
2022-07-30T00:17:36.935Z,27.80
2022-07-30T00:20:05.140Z,27.80
2022-07-30T00:22:32.237Z,27.80
2022-07-30T00:24:59.178Z,27.80
2022-07-30T00:27:26.624Z,27.70
2022-07-30T00:29:53.613Z,27.70
2022-07-30T00:32:20.694Z,27.60
2022-07-30T00:34:47.956Z,27.60
2022-07-30T00:37:14.971Z,27.60
2022-07-30T00:39:41.963Z,27.50
2022-07-30T00:42:09.029Z,27.50
2022-07-30T00:44:36.008Z,27.50
2022-07-30T00:47:08.078Z,27.50
2022-07-30T00:49:35.112Z,27.50
2022-07-30T00:52:01.991Z,27.40
2022-07-30T00:54:29.620Z,27.40
2022-07-30T00:56:57.188Z,27.30
2022-07-30T00:59:24.288Z,27.30
2022-07-30T01:01:51.358Z,27.20
2022-07-30T01:04:18.322Z,27.20
2022-07-30T01:06:45.523Z,27.10
2022-07-30T01:09:13.123Z,27.00
2022-07-30T01:11:42.329Z,26.90
2022-07-30T01:14:10.035Z,26.80
2022-07-30T01:16:39.827Z,26.80
2022-07-30T01:19:40.129Z,26.70
2022-07-30T01:22:46.848Z,26.60
2022-07-30T01:25:32.373Z,26.60
2022-07-30T01:28:07.367Z,26.50
2022-07-30T01:30:38.555Z,26.40
2022-07-30T01:33:07.352Z,26.30
2022-07-30T01:35:37.075Z,26.20
2022-07-30T01:38:05.763Z,26.20
2022-07-30T01:40:34.120Z,26.10
2022-07-30T01:43:03.107Z,26.00
2022-07-30T01:45:31.030Z,26.00
2022-07-30T01:48:05.121Z,25.90
2022-07-30T01:50:33.879Z,25.80
2022-07-30T01:53:01.388Z,25.70
2022-07-30T01:55:35.586Z,25.70
2022-07-30T01:58:04.193Z,25.60
2022-07-30T02:00:36.645Z,25.60
2022-07-30T02:03:05.628Z,25.60
2022-07-30T02:05:34.947Z,25.50
2022-07-30T02:08:35.054Z,25.50
2022-07-30T02:13:54.918Z,25.40
2022-07-30T02:16:31.000Z,25.40
2022-07-30T02:19:06.856Z,25.40
2022-07-30T02:21:41.249Z,25.40
2022-07-30T02:24:26.371Z,25.30
2022-07-30T02:26:58.357Z,25.30
2022-07-30T02:29:26.180Z,25.30
2022-07-30T02:31:56.446Z,25.30
2022-07-30T02:34:25.165Z,25.30
2022-07-30T02:36:53.994Z,25.30
2022-07-30T02:39:22.061Z,25.30
2022-07-30T02:41:50.943Z,25.10
2022-07-30T02:44:22.201Z,25.20
2022-07-30T02:46:50.962Z,25.10
2022-07-30T02:49:31.238Z,25.10
2022-07-30T02:52:00.464Z,25.00
2022-07-30T02:54:31.386Z,25.00
2022-07-30T02:57:02.285Z,25.00
2022-07-30T02:59:31.602Z,25.00
2022-07-30T03:02:00.412Z,24.90
2022-07-30T03:04:28.508Z,25.00
2022-07-30T03:06:56.139Z,24.90
2022-07-30T03:09:23.408Z,24.90
2022-07-30T03:11:52.842Z,24.90
2022-07-30T03:14:20.151Z,24.90
2022-07-30T03:16:52.432Z,24.80
2022-07-30T03:19:22.243Z,24.80
2022-07-30T03:21:50.473Z,24.80
2022-07-30T03:24:19.127Z,24.80
2022-07-30T03:26:47.237Z,24.80
2022-07-30T03:29:15.046Z,24.80
2022-07-30T03:31:42.845Z,24.80
2022-07-30T03:34:13.021Z,24.80
2022-07-30T03:36:41.717Z,24.80
2022-07-30T03:39:09.381Z,24.80
2022-07-30T03:41:38.535Z,24.80
2022-07-30T03:44:09.450Z,24.80
2022-07-30T03:46:38.258Z,24.80
2022-07-30T03:49:09.166Z,24.70
2022-07-30T03:51:37.521Z,24.80
2022-07-30T03:54:13.163Z,24.70
2022-07-30T03:56:41.719Z,24.80
2022-07-30T03:59:14.041Z,24.80
2022-07-30T04:01:41.666Z,24.80
2022-07-30T04:04:43.755Z,24.70
2022-07-30T04:07:11.029Z,24.70
2022-07-30T04:09:38.494Z,24.60
2022-07-30T04:12:22.893Z,24.60
2022-07-30T04:14:49.932Z,24.50
2022-07-30T04:17:44.174Z,24.50
2022-07-30T04:20:24.569Z,24.40
2022-07-30T04:22:53.723Z,24.50
2022-07-30T04:25:24.533Z,24.50
2022-07-30T04:28:03.035Z,24.50
2022-07-30T04:30:34.828Z,24.50
2022-07-30T04:33:03.717Z,24.40
2022-07-30T04:35:53.949Z,24.40
2022-07-30T04:38:27.107Z,24.40
2022-07-30T04:40:55.515Z,24.40
2022-07-30T04:43:22.861Z,24.40
2022-07-30T04:45:49.778Z,24.50
2022-07-30T04:48:16.769Z,24.40
2022-07-30T04:50:59.362Z,24.30
2022-07-30T04:53:28.715Z,24.40
2022-07-30T04:56:01.305Z,24.40
2022-07-30T04:58:31.177Z,24.40
2022-07-30T05:00:59.259Z,24.30
2022-07-30T05:03:31.428Z,24.40
2022-07-30T05:06:00.617Z,24.30
2022-07-30T05:08:31.408Z,24.30
2022-07-30T05:11:01.361Z,24.30
2022-07-30T05:13:38.040Z,24.30
2022-07-30T05:16:08.684Z,24.30
2022-07-30T05:18:35.633Z,24.30
2022-07-30T05:21:02.588Z,24.30
2022-07-30T05:23:36.359Z,24.30
2022-07-30T05:26:11.021Z,24.30
2022-07-30T05:28:42.635Z,24.30
2022-07-30T05:31:13.598Z,24.30
2022-07-30T05:33:48.287Z,24.30
2022-07-30T05:36:18.077Z,24.30
2022-07-30T05:38:46.033Z,24.30
2022-07-30T05:41:33.208Z,24.20
2022-07-30T05:44:22.094Z,24.20
2022-07-30T05:46:51.951Z,24.20
2022-07-30T05:49:19.381Z,24.20
2022-07-30T05:51:46.787Z,24.20
2022-07-30T05:54:13.950Z,24.20
2022-07-30T05:57:08.409Z,24.20
2022-07-30T05:59:38.167Z,24.20
2022-07-30T06:02:08.219Z,24.20
2022-07-30T06:05:00.755Z,24.20
2022-07-30T06:07:28.777Z,24.20
2022-07-30T06:10:00.223Z,24.20
2022-07-30T06:12:29.277Z,24.20
2022-07-30T06:14:57.371Z,24.20
2022-07-30T06:17:29.391Z,24.20
2022-07-30T06:20:20.414Z,24.20
2022-07-30T06:23:14.533Z,24.20
2022-07-30T06:26:01.062Z,24.20
2022-07-30T06:28:37.682Z,24.30
2022-07-30T06:31:19.649Z,24.30
2022-07-30T06:33:47.053Z,24.20
2022-07-30T06:36:14.777Z,24.20
2022-07-30T06:39:02.510Z,24.20
2022-07-30T06:41:55.604Z,24.20
2022-07-30T06:44:22.710Z,24.30
2022-07-30T06:47:08.670Z,24.30
2022-07-30T06:49:38.792Z,24.30
2022-07-30T06:52:08.724Z,24.40
2022-07-30T06:54:36.241Z,24.30
2022-07-30T06:57:22.409Z,24.30
2022-07-30T06:59:56.658Z,24.30
2022-07-30T07:02:45.121Z,24.30
2022-07-30T07:05:14.258Z,24.30
2022-07-30T07:07:57.850Z,24.30
2022-07-30T07:10:29.476Z,24.30
2022-07-30T07:13:19.248Z,24.30
2022-07-30T07:15:46.201Z,24.30
2022-07-30T07:18:18.664Z,24.30
2022-07-30T07:21:01.752Z,24.40
2022-07-30T07:23:39.776Z,24.30
2022-07-30T07:26:24.049Z,24.30
2022-07-30T07:28:52.139Z,24.40
2022-07-30T07:32:07.000Z,24.40
2022-07-30T07:34:05.912Z,24.40
2022-07-30T07:36:34.495Z,24.40
2022-07-30T07:39:02.412Z,24.40
2022-07-30T07:41:29.824Z,24.40
2022-07-30T07:44:16.182Z,24.40
2022-07-30T07:46:43.561Z,24.40
2022-07-30T07:49:11.597Z,24.40
2022-07-30T07:51:48.308Z,24.40
2022-07-30T07:54:22.949Z,24.40
2022-07-30T07:56:53.298Z,24.40
2022-07-30T07:59:36.244Z,24.50
2022-07-30T08:02:11.135Z,24.50
2022-07-30T08:04:49.716Z,24.40
2022-07-30T08:07:35.195Z,24.60
2022-07-30T08:10:21.097Z,24.60
2022-07-30T08:13:52.050Z,24.60
2022-07-30T08:16:23.099Z,24.60
2022-07-30T08:19:10.370Z,24.60
2022-07-30T08:21:40.024Z,24.60
2022-07-30T08:24:08.778Z,24.60
2022-07-30T08:26:35.914Z,24.60
2022-07-30T08:29:03.268Z,24.60
2022-07-30T08:31:30.453Z,24.50
2022-07-30T08:33:57.822Z,24.50
2022-07-30T08:36:26.177Z,24.50
2022-07-30T08:38:54.121Z,24.50
2022-07-30T08:41:21.822Z,24.40
2022-07-30T08:43:51.086Z,24.40
2022-07-30T08:46:24.421Z,24.40
2022-07-30T08:49:11.286Z,24.30
2022-07-30T08:51:40.113Z,24.40
2022-07-30T08:54:26.497Z,24.30
2022-07-30T08:56:54.528Z,24.40
2022-07-30T08:59:24.696Z,24.30
2022-07-30T09:02:13.107Z,24.30
2022-07-30T09:04:55.256Z,24.40
2022-07-30T09:07:22.427Z,24.40
2022-07-30T09:09:49.610Z,24.30
2022-07-30T09:12:31.985Z,24.40
2022-07-30T09:15:17.626Z,24.40
2022-07-30T09:17:49.699Z,24.50
2022-07-30T09:20:17.329Z,24.50
2022-07-30T09:23:05.337Z,24.60
2022-07-30T09:25:35.125Z,24.60
2022-07-30T09:28:30.878Z,24.60
2022-07-30T09:31:23.410Z,24.70
2022-07-30T09:34:25.326Z,24.70
2022-07-30T09:37:27.379Z,24.70
2022-07-30T09:40:19.066Z,24.60
2022-07-30T09:43:08.618Z,24.70
2022-07-30T09:45:57.505Z,24.60
2022-07-30T09:48:27.253Z,24.60
2022-07-30T09:50:55.554Z,24.70
2022-07-30T09:53:25.232Z,24.70
2022-07-30T09:55:52.567Z,24.60
2022-07-30T09:58:27.283Z,24.70
2022-07-30T10:01:00.887Z,24.60
2022-07-30T10:03:47.823Z,24.70
2022-07-30T10:06:38.181Z,24.60
2022-07-30T10:09:33.211Z,24.70
2022-07-30T10:12:06.171Z,24.60
2022-07-30T10:14:42.529Z,24.60
2022-07-30T10:17:12.998Z,24.60
2022-07-30T10:19:41.774Z,24.70
2022-07-30T10:22:28.577Z,24.80
2022-07-30T10:25:27.917Z,24.70
2022-07-30T10:28:10.752Z,24.70
2022-07-30T10:30:37.974Z,24.80
2022-07-30T10:33:08.224Z,24.80
2022-07-30T10:35:38.300Z,24.80
2022-07-30T10:38:13.981Z,24.80
2022-07-30T10:40:53.630Z,24.90
2022-07-30T10:43:45.857Z,24.90
2022-07-30T10:46:32.956Z,24.80
2022-07-30T10:49:19.019Z,24.90
2022-07-30T10:51:51.774Z,24.90
2022-07-30T10:54:39.188Z,25.00
2022-07-30T10:57:15.190Z,25.00
2022-07-30T10:59:50.350Z,25.00
2022-07-30T11:02:28.560Z,25.10
2022-07-30T11:05:17.960Z,25.10
2022-07-30T11:07:47.450Z,25.10
2022-07-30T11:10:44.059Z,25.20
2022-07-30T11:13:11.181Z,25.20
2022-07-30T11:15:55.236Z,25.30
2022-07-30T11:18:24.838Z,25.30
2022-07-30T11:21:10.757Z,25.40
2022-07-30T11:23:41.129Z,25.50
2022-07-30T11:26:08.093Z,25.50
2022-07-30T11:28:46.141Z,25.50
2022-07-30T11:31:56.686Z,25.50
2022-07-30T11:34:20.460Z,25.60
2022-07-30T11:37:19.286Z,26.00
2022-07-30T11:40:06.740Z,25.60
2022-07-30T11:42:39.067Z,25.70
2022-07-30T11:45:23.148Z,25.70
2022-07-30T11:47:52.728Z,25.80
2022-07-30T11:50:33.053Z,25.80
2022-07-30T11:53:02.705Z,25.80
2022-07-30T11:55:35.990Z,25.80
2022-07-30T11:58:06.001Z,25.80
2022-07-30T12:00:47.993Z,25.80
2022-07-30T12:03:17.092Z,25.80
2022-07-30T12:05:44.781Z,25.90
2022-07-30T12:08:35.122Z,25.80
2022-07-30T12:11:01.239Z,25.90
2022-07-30T12:13:45.359Z,25.90
2022-07-30T12:16:17.846Z,25.90
2022-07-30T12:18:46.405Z,25.90
2022-07-30T12:21:17.079Z,26.10
2022-07-30T12:23:58.542Z,26.20
2022-07-30T12:26:27.809Z,26.20
2022-07-30T12:28:56.494Z,26.40
2022-07-30T12:31:23.855Z,26.40
2022-07-30T12:33:50.819Z,26.50
2022-07-30T12:36:47.325Z,26.60
2022-07-30T12:39:23.974Z,26.60
2022-07-30T12:41:53.155Z,26.60
2022-07-30T12:44:37.958Z,26.60
2022-07-30T12:47:07.354Z,26.60
2022-07-30T12:49:39.373Z,26.60
2022-07-30T12:52:33.802Z,26.70
2022-07-30T12:55:08.680Z,26.80
2022-07-30T12:57:56.420Z,26.90
2022-07-30T13:00:25.533Z,27.20
2022-07-30T13:02:53.105Z,27.30
2022-07-30T13:05:20.356Z,27.50
2022-07-30T13:08:00.428Z,27.50
2022-07-30T13:10:31.082Z,27.60
2022-07-30T13:12:58.615Z,27.70
2022-07-30T13:15:26.362Z,27.70
2022-07-30T13:17:53.305Z,27.90
2022-07-30T13:20:21.063Z,28.00
2022-07-30T13:22:48.065Z,28.20
2022-07-30T13:25:15.071Z,28.30
2022-07-30T13:27:42.060Z,28.40
2022-07-30T13:30:09.933Z,28.50
2022-07-30T13:32:37.073Z,28.50
2022-07-30T13:35:04.326Z,28.60
2022-07-30T13:37:38.078Z,28.70
2022-07-30T13:40:06.660Z,28.40
2022-07-30T13:42:33.601Z,28.70
2022-07-30T13:45:00.753Z,28.70
2022-07-30T13:47:27.736Z,28.70
2022-07-30T13:49:54.669Z,28.70
2022-07-30T13:52:21.557Z,28.70
2022-07-30T13:54:50.737Z,28.70
2022-07-30T13:57:17.705Z,28.90
2022-07-30T13:59:44.653Z,29.00
2022-07-30T14:02:11.580Z,29.10
2022-07-30T14:04:38.505Z,29.20
2022-07-30T14:07:05.750Z,29.30
2022-07-30T14:09:33.171Z,29.40
2022-07-30T14:12:11.541Z,29.60
2022-07-30T14:14:38.472Z,29.60
2022-07-30T14:17:05.443Z,29.60
2022-07-30T14:19:32.387Z,29.60
2022-07-30T14:21:59.325Z,29.70
2022-07-30T14:24:26.230Z,29.80
2022-07-30T14:27:04.459Z,30.00
2022-07-30T14:29:31.657Z,30.20
2022-07-30T14:31:58.565Z,30.40
2022-07-30T14:34:25.624Z,30.50
2022-07-30T14:36:52.893Z,30.70
2022-07-30T14:39:20.623Z,30.90
2022-07-30T14:41:47.924Z,31.00
2022-07-30T14:44:19.415Z,31.10
2022-07-30T14:46:51.663Z,31.20
2022-07-30T14:49:20.508Z,31.30
2022-07-30T14:51:47.510Z,31.40
2022-07-30T14:54:14.459Z,31.50
2022-07-30T14:56:41.771Z,31.40
2022-07-30T14:59:08.792Z,31.50
2022-07-30T15:01:35.784Z,31.50
2022-07-30T15:04:02.875Z,31.40
2022-07-30T15:06:29.976Z,31.20
2022-07-30T15:08:56.896Z,30.90
2022-07-30T15:11:24.387Z,30.60
2022-07-30T15:13:52.579Z,30.40
2022-07-30T15:16:20.130Z,30.10
2022-07-30T15:18:47.178Z,29.80
2022-07-30T15:21:14.729Z,29.60
2022-07-30T15:23:41.928Z,29.40
2022-07-30T15:26:08.880Z,29.20
2022-07-30T15:28:35.918Z,29.10
2022-07-30T15:31:03.487Z,28.90
2022-07-30T15:33:30.564Z,28.80
2022-07-30T15:36:03.354Z,28.80
2022-07-30T15:38:30.286Z,28.80
2022-07-30T15:40:57.384Z,28.70
2022-07-30T15:43:24.291Z,28.70
2022-07-30T15:45:55.891Z,28.70
2022-07-30T15:48:27.795Z,28.70
2022-07-30T15:51:04.989Z,28.60
2022-07-30T15:53:32.452Z,28.50
2022-07-30T15:56:00.317Z,28.50
2022-07-30T15:58:27.469Z,28.40
2022-07-30T16:00:54.548Z,28.40
2022-07-30T16:03:21.764Z,28.30
2022-07-30T16:05:51.382Z,27.80
2022-07-30T16:08:20.703Z,28.20
2022-07-30T16:10:48.461Z,28.30
2022-07-30T16:13:15.824Z,28.50
2022-07-30T16:15:42.721Z,28.90
2022-07-30T16:18:10.664Z,29.20
2022-07-30T16:20:37.531Z,29.60
2022-07-30T16:23:07.057Z,30.00
2022-07-30T16:25:37.296Z,30.30
2022-07-30T16:28:04.244Z,30.70
2022-07-30T16:30:31.199Z,31.00
2022-07-30T16:32:58.150Z,31.20
2022-07-30T16:35:25.077Z,31.30
2022-07-30T16:37:52.269Z,31.40
2022-07-30T16:40:19.241Z,31.50
2022-07-30T16:42:46.158Z,31.60
2022-07-30T16:45:13.379Z,31.70
2022-07-30T16:47:40.365Z,31.90
2022-07-30T16:50:07.653Z,32.00
2022-07-30T16:52:34.534Z,32.10
2022-07-30T16:55:01.554Z,32.20
2022-07-30T16:57:28.404Z,32.20
2022-07-30T16:59:55.337Z,32.30
2022-07-30T17:02:22.220Z,32.30
2022-07-30T17:04:49.278Z,32.20
2022-07-30T17:07:16.457Z,32.20
2022-07-30T17:09:43.488Z,32.20
2022-07-30T17:12:19.463Z,32.20
2022-07-30T17:14:52.629Z,32.20
2022-07-30T17:17:19.489Z,32.10
2022-07-30T17:19:46.415Z,32.00
2022-07-30T17:22:13.339Z,32.00
2022-07-30T17:24:40.293Z,31.80
2022-07-30T17:27:07.210Z,31.70
2022-07-30T17:29:34.242Z,31.50
2022-07-30T17:32:15.539Z,31.30
2022-07-30T17:34:42.440Z,31.20
2022-07-30T17:37:09.621Z,30.90
2022-07-30T17:40:29.927Z,30.70
2022-07-30T17:42:25.458Z,30.40
2022-07-30T17:44:52.656Z,30.10
2022-07-30T17:47:19.613Z,29.80
2022-07-30T17:49:46.663Z,29.90
2022-07-30T17:52:13.639Z,29.40
2022-07-30T17:54:40.747Z,29.20
2022-07-30T17:57:07.865Z,29.00
2022-07-30T17:59:35.073Z,28.90
2022-07-30T18:02:04.242Z,28.70
2022-07-30T18:04:31.549Z,28.60
2022-07-30T18:06:58.419Z,28.40
2022-07-30T18:09:25.314Z,28.30
2022-07-30T18:11:52.334Z,28.20
2022-07-30T18:14:19.397Z,28.20
2022-07-30T18:16:46.403Z,28.00
2022-07-30T18:19:22.650Z,28.00
2022-07-30T18:21:54.656Z,27.90
2022-07-30T18:24:24.730Z,27.80
2022-07-30T18:26:52.122Z,27.80
2022-07-30T18:29:19.032Z,27.70
2022-07-30T18:31:48.253Z,27.60
2022-07-30T18:34:15.239Z,27.60
2022-07-30T18:36:42.389Z,27.50
2022-07-30T18:39:09.352Z,27.50
2022-07-30T18:41:36.514Z,27.40
2022-07-30T18:44:03.786Z,27.20
2022-07-30T18:46:30.709Z,27.20
2022-07-30T18:49:01.053Z,27.10
2022-07-30T18:51:34.232Z,27.00
2022-07-30T18:54:01.285Z,26.90
2022-07-30T18:56:28.156Z,26.80
2022-07-30T18:58:55.172Z,26.80
2022-07-30T19:01:22.864Z,26.70
2022-07-30T19:03:50.062Z,26.60
2022-07-30T19:06:17.069Z,26.60
2022-07-30T19:08:48.326Z,26.50
2022-07-30T19:11:15.180Z,26.40
2022-07-30T19:13:42.174Z,26.30
2022-07-30T19:16:10.490Z,26.30
2022-07-30T19:18:37.403Z,26.30
2022-07-30T19:21:04.328Z,26.20
2022-07-30T19:23:31.332Z,26.10
2022-07-30T19:25:58.303Z,26.10
2022-07-30T19:28:25.230Z,26.10
2022-07-30T19:30:52.170Z,26.10
2022-07-30T19:33:19.134Z,26.00
2022-07-30T19:35:47.192Z,26.00
2022-07-30T19:38:22.203Z,25.90
2022-07-30T19:40:50.896Z,25.90
2022-07-30T19:43:24.721Z,25.90
2022-07-30T19:45:51.953Z,25.80
2022-07-30T19:48:29.293Z,25.80
2022-07-30T19:51:01.450Z,25.70
2022-07-30T19:53:31.565Z,25.70
2022-07-30T19:56:03.285Z,25.60
2022-07-30T19:58:31.204Z,25.60
2022-07-30T20:00:58.470Z,25.50
2022-07-30T20:03:31.930Z,25.50
2022-07-30T20:06:00.470Z,25.50
2022-07-30T20:08:28.455Z,25.40
2022-07-30T20:10:57.749Z,25.40
2022-07-30T20:13:25.358Z,25.30
2022-07-30T20:16:13.770Z,25.30
2022-07-30T20:18:42.872Z,25.30
2022-07-30T20:21:14.985Z,25.20
2022-07-30T20:23:43.553Z,25.10
2022-07-30T20:26:13.888Z,25.10
2022-07-30T20:28:47.978Z,25.00
2022-07-30T20:31:20.184Z,25.00
2022-07-30T20:33:49.584Z,24.90
2022-07-30T20:36:34.751Z,24.90
2022-07-30T20:39:01.728Z,24.90
2022-07-30T20:41:32.011Z,24.90
2022-07-30T20:44:02.472Z,24.80
2022-07-30T20:46:31.914Z,24.70
2022-07-30T20:48:59.279Z,24.70
2022-07-30T20:51:32.912Z,24.60
2022-07-30T20:54:00.941Z,24.60
2022-07-30T20:56:28.673Z,24.60
2022-07-30T20:58:57.002Z,24.50
2022-07-30T21:01:24.015Z,24.60
2022-07-30T21:03:50.982Z,24.60
2022-07-30T21:06:19.468Z,24.60
2022-07-30T21:08:46.340Z,24.60
2022-07-30T21:11:13.385Z,24.50
2022-07-30T21:13:41.949Z,24.50
2022-07-30T21:16:16.087Z,24.50
2022-07-30T21:18:49.882Z,24.40
2022-07-30T21:21:30.549Z,24.40
2022-07-30T21:24:05.879Z,24.40
2022-07-30T21:26:40.505Z,24.30
2022-07-30T21:29:08.552Z,24.30
2022-07-30T21:34:26.095Z,24.20
2022-07-30T21:36:58.062Z,24.20
2022-07-30T21:39:29.130Z,24.10
2022-07-30T21:41:56.783Z,24.10
2022-07-30T21:44:24.286Z,24.20
2022-07-30T21:46:52.403Z,24.10
2022-07-30T21:49:20.795Z,24.10
2022-07-30T21:51:48.543Z,24.00
2022-07-30T21:54:28.487Z,24.00
2022-07-30T21:59:46.441Z,23.80
2022-07-30T22:02:19.034Z,23.90
2022-07-30T22:04:50.462Z,23.80
2022-07-30T22:07:17.675Z,23.70
2022-07-30T22:09:45.448Z,23.60
2022-07-30T22:12:18.098Z,23.50
2022-07-30T22:14:49.427Z,23.50
2022-07-30T22:17:23.916Z,23.40
2022-07-30T22:20:08.863Z,23.40
2022-07-30T22:22:39.307Z,23.40
2022-07-30T22:25:14.301Z,23.30
2022-07-30T22:27:56.388Z,23.30
2022-07-30T22:30:27.074Z,23.30
2022-07-30T22:33:18.610Z,23.40
2022-07-30T22:35:49.952Z,23.30
2022-07-30T22:38:17.468Z,23.30
2022-07-30T22:40:46.834Z,23.30
2022-07-30T22:43:15.905Z,23.30
2022-07-30T22:45:49.213Z,23.30
2022-07-30T22:48:19.333Z,23.30
2022-07-30T22:50:53.217Z,23.30
2022-07-30T22:54:02.744Z,23.30
2022-07-30T22:56:07.505Z,23.20
2022-07-30T22:58:41.904Z,23.20
2022-07-30T23:01:10.901Z,23.10
2022-07-30T23:03:38.023Z,23.10
2022-07-30T23:06:05.199Z,23.10
2022-07-30T23:08:33.575Z,23.00
2022-07-30T23:11:00.987Z,23.00
2022-07-30T23:12:31.831Z,24.20
2022-07-30T23:12:32.973Z,24.00
2022-07-30T23:13:28.759Z,23.00
2022-07-30T23:15:55.922Z,22.90
2022-07-30T23:18:23.043Z,22.80
2022-07-30T23:20:59.923Z,22.80
2022-07-30T23:23:31.009Z,22.90
2022-07-30T23:26:02.015Z,22.80
2022-07-30T23:28:28.914Z,22.70
2022-07-30T23:30:56.254Z,22.70
2022-07-30T23:33:26.720Z,22.70
2022-07-30T23:35:53.909Z,22.60
2022-07-30T23:38:20.841Z,22.50
2022-07-30T23:40:47.708Z,22.50
2022-07-30T23:43:15.545Z,22.50
2022-07-30T23:45:42.422Z,22.50
2022-07-30T23:48:10.257Z,22.50
2022-07-30T23:50:37.470Z,22.40
2022-07-30T23:53:05.243Z,22.40
2022-07-30T23:55:32.336Z,22.30
2022-07-30T23:58:00.050Z,22.40
